createdAt,value
2024-01-19T00:00:08.982Z,88.92
2024-01-19T00:03:17.147Z,90.24
2024-01-19T00:06:24.446Z,84.06
2024-01-19T00:09:31.246Z,91.36
2024-01-19T00:12:38.066Z,92.14
2024-01-19T00:15:44.574Z,100.00
2024-01-19T00:18:52.958Z,91.99
2024-01-19T00:21:59.259Z,87.25
2024-01-19T00:25:06.182Z,92.24
2024-01-19T00:28:13.027Z,96.39
2024-01-19T00:31:19.476Z,91.10
2024-01-19T00:34:27.357Z,93.50
2024-01-19T00:37:34.035Z,93.65
2024-01-19T00:40:40.476Z,88.00
2024-01-19T00:43:47.127Z,89.55
2024-01-19T00:46:53.233Z,86.79
2024-01-19T00:50:01.006Z,89.83
2024-01-19T00:53:07.483Z,95.12
2024-01-19T00:56:17.235Z,97.58
2024-01-19T00:59:23.800Z,89.78
2024-01-19T01:02:32.622Z,89.96
2024-01-19T01:05:41.364Z,88.46
2024-01-19T01:08:48.815Z,96.40
2024-01-19T01:11:55.021Z,91.98
2024-01-19T01:15:01.586Z,91.42
2024-01-19T01:18:08.184Z,91.39
2024-01-19T01:21:16.153Z,89.84
2024-01-19T01:24:23.668Z,88.08
2024-01-19T01:27:29.913Z,93.75
2024-01-19T01:30:36.246Z,94.65
2024-01-19T01:33:43.529Z,92.04
2024-01-19T01:36:51.221Z,88.21
2024-01-19T01:39:57.683Z,84.93
2024-01-19T01:43:06.669Z,87.39
2024-01-19T01:46:13.388Z,94.77
2024-01-19T01:49:20.057Z,88.49
2024-01-19T01:52:28.284Z,89.69
2024-01-19T01:55:34.692Z,88.74
2024-01-19T01:58:41.331Z,97.63
2024-01-19T02:01:48.075Z,90.45
2024-01-19T02:04:54.629Z,84.80
2024-01-19T02:08:04.835Z,83.19
2024-01-19T02:11:11.331Z,89.89
2024-01-19T02:14:17.858Z,86.31
2024-01-19T02:17:25.470Z,94.68
2024-01-19T02:20:31.919Z,85.91
2024-01-19T02:23:49.844Z,88.89
2024-01-19T02:26:58.743Z,93.91
2024-01-19T02:30:05.508Z,86.37
2024-01-19T02:33:13.017Z,85.71
2024-01-19T02:36:20.702Z,93.38
2024-01-19T02:39:27.008Z,94.18
2024-01-19T02:42:35.002Z,91.58
2024-01-19T02:45:42.720Z,89.41
2024-01-19T02:48:49.270Z,91.74
2024-01-19T02:51:56.009Z,85.41
2024-01-19T02:55:02.373Z,84.75
2024-01-19T02:58:10.172Z,97.28
2024-01-19T03:01:17.682Z,96.85
2024-01-19T03:04:24.320Z,90.53
2024-01-19T03:07:30.856Z,84.38
2024-01-19T03:10:38.414Z,82.31
2024-01-19T03:13:46.412Z,82.32
2024-01-19T03:16:53.535Z,83.35
2024-01-19T03:19:59.992Z,82.51
2024-01-19T03:23:07.156Z,91.58
2024-01-19T03:26:13.428Z,95.51
2024-01-19T03:29:21.456Z,88.84
2024-01-19T03:32:27.697Z,89.27
2024-01-19T03:35:34.650Z,94.88
2024-01-19T03:38:40.993Z,90.67
2024-01-19T03:41:47.306Z,85.24
2024-01-19T03:44:55.510Z,87.73
2024-01-19T03:48:02.758Z,96.65
2024-01-19T03:51:09.817Z,95.80
2024-01-19T03:54:16.377Z,88.19
2024-01-19T03:57:22.641Z,91.80
2024-01-19T04:00:30.588Z,92.01
2024-01-19T04:03:37.037Z,86.33
2024-01-19T04:06:43.806Z,86.43
2024-01-19T04:09:50.845Z,89.74
2024-01-19T04:12:57.704Z,89.00
2024-01-19T04:16:07.038Z,90.42
2024-01-19T04:19:13.800Z,85.61
2024-01-19T04:22:20.092Z,86.98
2024-01-19T04:25:26.646Z,82.72
2024-01-19T04:28:33.416Z,91.59
2024-01-19T04:31:41.128Z,90.93
2024-01-19T04:34:47.343Z,94.69
2024-01-19T04:37:53.984Z,91.87
2024-01-19T04:41:00.381Z,92.04
2024-01-19T04:44:07.766Z,96.45
2024-01-19T04:47:15.478Z,98.81
2024-01-19T04:50:22.628Z,93.22
2024-01-19T04:53:29.731Z,91.98
2024-01-19T04:56:36.270Z,87.86
2024-01-19T04:59:43.044Z,84.32
2024-01-19T05:02:51.436Z,84.28
2024-01-19T05:05:57.858Z,89.20
2024-01-19T05:09:06.058Z,93.29
2024-01-19T05:12:12.366Z,93.34
2024-01-19T05:15:20.733Z,92.47
2024-01-19T05:18:30.629Z,88.66
2024-01-19T05:21:37.343Z,89.07
2024-01-19T05:24:44.160Z,89.94
2024-01-19T05:27:52.433Z,84.94
2024-01-19T05:30:58.755Z,87.16
2024-01-19T05:34:07.091Z,93.66
2024-01-19T05:37:13.897Z,90.00
2024-01-19T05:40:20.327Z,90.24
2024-01-19T05:43:27.004Z,91.12
2024-01-19T05:46:33.381Z,88.37
2024-01-19T05:49:42.774Z,83.52
2024-01-19T05:52:49.401Z,86.63
2024-01-19T05:55:55.650Z,84.76
2024-01-19T05:59:02.937Z,85.82
2024-01-19T06:02:09.402Z,88.07
2024-01-19T06:05:17.288Z,85.26
2024-01-19T06:08:23.597Z,91.99
2024-01-19T06:11:30.470Z,91.30
2024-01-19T06:14:37.564Z,88.07
2024-01-19T06:17:43.986Z,87.30
2024-01-19T06:20:53.357Z,89.65
2024-01-19T06:23:59.919Z,85.06
2024-01-19T06:27:06.940Z,87.57
2024-01-19T06:30:14.482Z,89.13
2024-01-19T06:33:21.101Z,88.17
2024-01-19T06:36:29.953Z,88.95
2024-01-19T06:39:36.628Z,89.64
2024-01-19T06:42:43.137Z,89.54
2024-01-19T06:45:49.800Z,94.01
2024-01-19T06:48:56.724Z,86.08
2024-01-19T06:52:05.866Z,83.46
2024-01-19T06:55:12.666Z,81.20
2024-01-19T06:58:19.168Z,90.45
2024-01-19T07:01:25.594Z,86.34
2024-01-19T07:04:32.131Z,87.80
2024-01-19T07:07:40.283Z,89.60
2024-01-19T07:10:46.892Z,87.02
2024-01-19T07:13:53.974Z,84.06
2024-01-19T07:17:00.506Z,81.04
2024-01-19T07:20:08.513Z,81.82
2024-01-19T07:23:16.405Z,85.80
2024-01-19T07:26:23.112Z,93.86
2024-01-19T07:29:30.083Z,90.07
2024-01-19T07:32:51.157Z,87.06
2024-01-19T07:36:03.594Z,88.50
2024-01-19T07:39:12.823Z,81.82
2024-01-19T07:42:19.571Z,84.34
2024-01-19T07:45:26.192Z,81.03
2024-01-19T07:48:33.107Z,87.09
2024-01-19T07:51:39.708Z,87.23
2024-01-19T07:54:48.068Z,88.37
2024-01-19T07:57:54.561Z,97.82
2024-01-19T08:01:01.252Z,89.15
2024-01-19T08:04:07.699Z,86.48
2024-01-19T08:07:14.610Z,91.98
2024-01-19T08:10:22.682Z,89.42
2024-01-19T08:13:29.166Z,92.39
2024-01-19T08:16:36.934Z,86.61
2024-01-19T08:19:43.193Z,97.53
2024-01-19T08:22:49.696Z,90.65
2024-01-19T08:25:59.638Z,96.96
2024-01-19T08:29:07.803Z,97.43
2024-01-19T08:32:14.238Z,90.14
2024-01-19T08:35:20.719Z,92.21
2024-01-19T08:38:26.960Z,88.59
2024-01-19T08:41:41.828Z,83.81
2024-01-19T08:44:48.559Z,84.26
2024-01-19T08:47:58.690Z,85.83
2024-01-19T08:51:05.977Z,83.82
2024-01-19T08:54:13.268Z,82.07
2024-01-19T08:57:21.543Z,78.96
2024-01-19T09:00:28.436Z,82.22
2024-01-19T09:03:35.061Z,90.26
2024-01-19T09:06:45.297Z,76.96
2024-01-19T09:09:52.954Z,83.22
2024-01-19T09:13:01.082Z,89.46
2024-01-19T09:16:08.938Z,84.96
2024-01-19T09:19:16.415Z,89.09
2024-01-19T09:22:23.437Z,91.11
2024-01-19T09:25:30.082Z,96.07
2024-01-19T09:28:38.245Z,93.78
2024-01-19T09:31:45.577Z,90.41
2024-01-19T09:34:52.415Z,97.50
2024-01-19T09:37:58.769Z,91.85
2024-01-19T09:41:23.303Z,84.62
2024-01-19T09:44:37.201Z,78.24
2024-01-19T09:47:55.034Z,80.39
2024-01-19T09:51:04.352Z,79.44
2024-01-19T09:54:16.731Z,79.86
2024-01-19T09:57:23.464Z,76.17
2024-01-19T10:00:31.814Z,75.59
2024-01-19T10:03:39.139Z,74.92
2024-01-19T10:06:46.476Z,75.72
2024-01-19T10:09:54.384Z,76.74
2024-01-19T10:13:01.030Z,85.98
2024-01-19T10:16:09.297Z,79.84
2024-01-19T10:19:17.441Z,80.31
2024-01-19T10:22:28.844Z,76.85
2024-01-19T10:25:36.275Z,79.74
2024-01-19T10:28:43.028Z,76.59
2024-01-19T10:31:52.497Z,75.48
2024-01-19T10:35:07.253Z,82.29
2024-01-19T10:38:13.680Z,85.07
2024-01-19T10:41:26.759Z,88.17
2024-01-19T10:44:33.536Z,79.48
2024-01-19T10:47:45.085Z,79.15
2024-01-19T10:50:51.943Z,74.90
2024-01-19T10:54:04.866Z,74.50
2024-01-19T10:57:11.597Z,74.14
2024-01-19T11:00:26.124Z,72.11
2024-01-19T11:03:34.513Z,74.43
2024-01-19T11:06:42.682Z,76.09
2024-01-19T11:09:49.220Z,73.80
2024-01-19T11:12:58.121Z,73.06
2024-01-19T11:16:09.714Z,73.88
2024-01-19T11:19:19.373Z,78.81
2024-01-19T11:22:26.980Z,77.32
2024-01-19T11:25:54.068Z,79.82
2024-01-19T11:29:03.542Z,81.19
2024-01-19T11:32:10.713Z,80.60
2024-01-19T11:35:41.118Z,72.19
2024-01-19T11:38:49.875Z,73.03
2024-01-19T11:41:56.430Z,75.68
2024-01-19T11:45:03.784Z,77.56
2024-01-19T11:48:10.481Z,77.45
2024-01-19T11:51:35.720Z,78.34
2024-01-19T11:54:43.522Z,80.07
2024-01-19T11:57:50.404Z,75.02
2024-01-19T12:00:57.838Z,75.25
2024-01-19T12:04:04.901Z,73.48
2024-01-19T12:07:13.196Z,72.85
2024-01-19T12:10:20.322Z,72.21
2024-01-19T12:13:27.049Z,69.37
2024-01-19T12:16:33.598Z,71.90
2024-01-19T12:19:41.838Z,74.11
2024-01-19T12:22:57.306Z,70.17
2024-01-19T12:26:06.104Z,72.17
2024-01-19T12:29:12.932Z,77.33
2024-01-19T12:32:22.040Z,73.72
2024-01-19T12:35:29.058Z,74.98
2024-01-19T12:38:37.189Z,72.46
2024-01-19T12:41:44.602Z,70.28
2024-01-19T12:44:57.453Z,69.01
2024-01-19T12:48:10.088Z,67.60
2024-01-19T12:51:24.898Z,65.79
2024-01-19T12:54:45.155Z,66.86
2024-01-19T12:57:51.959Z,68.33
2024-01-19T13:01:08.692Z,68.24
2024-01-19T13:04:16.993Z,71.68
2024-01-19T13:07:24.869Z,68.71
2024-01-19T13:10:33.602Z,65.57
2024-01-19T13:13:40.551Z,66.98
2024-01-19T13:16:55.921Z,68.83
2024-01-19T13:20:05.398Z,66.65
2024-01-19T13:23:12.374Z,66.73
2024-01-19T13:26:21.520Z,68.07
2024-01-19T13:29:28.540Z,68.89
2024-01-19T13:32:35.740Z,65.16
2024-01-19T13:35:42.180Z,68.45
2024-01-19T13:38:49.569Z,66.02
2024-01-19T13:41:57.720Z,65.45
2024-01-19T13:45:06.385Z,69.11
2024-01-19T13:48:12.746Z,69.92
2024-01-19T13:51:19.607Z,72.67
2024-01-19T13:54:26.414Z,71.67
2024-01-19T13:57:34.456Z,68.36
2024-01-19T14:00:41.271Z,73.47
2024-01-19T14:03:48.313Z,79.73
2024-01-19T14:06:55.232Z,77.35
2024-01-19T14:10:02.056Z,74.03
2024-01-19T14:13:10.092Z,73.55
2024-01-19T14:16:17.222Z,71.50
2024-01-19T14:19:24.032Z,69.73
2024-01-19T14:22:30.787Z,69.74
2024-01-19T14:25:37.545Z,67.58
2024-01-19T14:28:46.514Z,68.14
2024-01-19T14:31:53.543Z,70.98
2024-01-19T14:35:00.782Z,74.90
2024-01-19T14:38:08.283Z,73.78
2024-01-19T14:41:14.781Z,72.26
2024-01-19T14:44:23.477Z,69.08
2024-01-19T14:47:30.039Z,67.44
2024-01-19T14:50:39.313Z,69.95
2024-01-19T14:53:47.746Z,72.78
2024-01-19T14:56:55.092Z,72.50
2024-01-19T15:00:04.978Z,69.97
2024-01-19T15:03:11.519Z,70.39
2024-01-19T15:06:18.956Z,72.57
2024-01-19T15:09:25.671Z,74.38
2024-01-19T15:12:33.409Z,76.42
2024-01-19T15:15:41.437Z,74.53
2024-01-19T15:18:48.042Z,77.78
2024-01-19T15:21:56.698Z,80.60
2024-01-19T15:25:03.747Z,79.31
2024-01-19T15:28:10.616Z,69.31
2024-01-19T15:31:23.011Z,64.58
2024-01-19T15:34:29.681Z,67.87
2024-01-19T15:37:37.853Z,67.77
2024-01-19T15:40:44.180Z,67.88
2024-01-19T15:43:51.148Z,68.95
2024-01-19T15:46:59.467Z,69.84
2024-01-19T15:50:07.474Z,69.89
2024-01-19T15:53:14.362Z,69.74
2024-01-19T15:56:26.074Z,71.18
2024-01-19T15:59:38.338Z,68.10
2024-01-19T16:02:46.453Z,70.28
2024-01-19T16:05:54.048Z,67.85
2024-01-19T16:09:00.911Z,68.08
2024-01-19T16:12:07.860Z,69.01
2024-01-19T16:15:14.599Z,70.76
2024-01-19T16:18:22.760Z,67.30
2024-01-19T16:21:29.448Z,67.22
2024-01-19T16:24:36.139Z,74.81
2024-01-19T16:27:42.757Z,69.08
2024-01-19T16:30:50.649Z,66.72
2024-01-19T16:33:58.702Z,66.05
2024-01-19T16:37:05.153Z,65.93
2024-01-19T16:40:13.278Z,66.80
2024-01-19T16:43:20.290Z,65.30
2024-01-19T16:46:26.568Z,66.86
2024-01-19T16:49:34.297Z,68.72
2024-01-19T16:52:40.988Z,68.00
2024-01-19T16:55:48.997Z,67.46
2024-01-19T16:58:55.874Z,66.03
2024-01-19T17:02:02.537Z,65.76
2024-01-19T17:05:10.923Z,66.51
2024-01-19T17:08:18.359Z,68.34
2024-01-19T17:11:26.082Z,72.43
2024-01-19T17:14:36.953Z,72.13
2024-01-19T17:17:43.739Z,76.68
2024-01-19T17:20:51.795Z,72.31
2024-01-19T17:23:59.957Z,73.54
2024-01-19T17:27:09.094Z,74.33
2024-01-19T17:30:16.870Z,72.10
2024-01-19T17:33:24.344Z,75.63
2024-01-19T17:36:33.202Z,72.45
2024-01-19T17:39:40.036Z,72.01
2024-01-19T17:42:47.411Z,73.77
2024-01-19T17:45:54.511Z,74.84
2024-01-19T17:49:00.916Z,74.10
2024-01-19T17:52:10.301Z,75.95
2024-01-19T17:55:17.235Z,74.30
2024-01-19T17:58:24.250Z,72.38
2024-01-19T18:01:31.532Z,75.79
2024-01-19T18:04:38.128Z,77.63
2024-01-19T18:07:46.180Z,76.63
2024-01-19T18:10:53.388Z,75.65
2024-01-19T18:14:00.779Z,77.26
2024-01-19T18:17:07.630Z,80.42
2024-01-19T18:20:14.915Z,80.03
2024-01-19T18:23:22.618Z,77.17
2024-01-19T18:26:29.130Z,78.81
2024-01-19T18:29:37.020Z,82.00
2024-01-19T18:32:43.865Z,81.97
2024-01-19T18:35:51.546Z,78.64
2024-01-19T18:38:59.545Z,78.16
2024-01-19T18:42:06.665Z,79.09
2024-01-19T18:45:14.818Z,78.99
2024-01-19T18:48:21.080Z,79.64
2024-01-19T18:51:27.210Z,78.78
2024-01-19T18:54:35.108Z,75.37
2024-01-19T18:57:42.109Z,81.06
2024-01-19T19:00:48.645Z,82.54
2024-01-19T19:03:55.574Z,87.92
2024-01-19T19:07:04.398Z,83.83
2024-01-19T19:10:12.683Z,82.32
2024-01-19T19:13:18.966Z,84.61
2024-01-19T19:16:35.756Z,77.89
2024-01-19T19:19:51.409Z,79.75
2024-01-19T19:23:00.711Z,80.30
2024-01-19T19:26:14.245Z,79.12
2024-01-19T19:29:20.758Z,80.24
2024-01-19T19:32:27.435Z,79.16
2024-01-19T19:35:34.134Z,77.23
2024-01-19T19:38:44.886Z,84.06
2024-01-19T19:41:53.632Z,87.22
2024-01-19T19:45:00.365Z,87.29
2024-01-19T19:48:09.782Z,82.79
2024-01-19T19:51:18.578Z,81.50
2024-01-19T19:54:25.354Z,82.85
2024-01-19T19:57:33.372Z,81.76
2024-01-19T20:00:40.125Z,80.83
2024-01-19T20:03:46.694Z,80.04
2024-01-19T20:06:53.268Z,85.75
2024-01-19T20:10:00.653Z,83.04
2024-01-19T20:13:09.033Z,81.28
2024-01-19T20:16:16.207Z,82.06
2024-01-19T20:19:22.486Z,82.22
2024-01-19T20:22:29.461Z,82.53
2024-01-19T20:25:36.574Z,80.85
2024-01-19T20:28:45.409Z,79.57
2024-01-19T20:31:52.240Z,85.51
2024-01-19T20:34:58.630Z,92.96
2024-01-19T20:38:05.884Z,86.24
2024-01-19T20:41:13.727Z,80.61
2024-01-19T20:44:22.070Z,80.14
2024-01-19T20:47:28.839Z,81.91
2024-01-19T20:50:35.677Z,82.54
2024-01-19T20:53:44.557Z,77.87
2024-01-19T20:56:54.008Z,85.54
2024-01-19T21:00:06.506Z,85.95
2024-01-19T21:03:13.493Z,80.81
2024-01-19T21:06:21.076Z,78.22
2024-01-19T21:09:29.431Z,79.24
2024-01-19T21:12:36.213Z,82.52
2024-01-19T21:15:48.861Z,82.89
2024-01-19T21:18:55.966Z,80.44
2024-01-19T21:22:05.362Z,86.20
2024-01-19T21:25:14.073Z,83.49
2024-01-19T21:28:20.873Z,83.26
2024-01-19T21:31:29.176Z,84.58
2024-01-19T21:34:36.026Z,80.33
2024-01-19T21:37:42.838Z,79.37
2024-01-19T21:40:50.547Z,84.67
2024-01-19T21:43:58.275Z,80.80
2024-01-19T21:47:09.205Z,84.43
2024-01-19T21:50:16.459Z,88.29
2024-01-19T21:53:23.588Z,86.48
2024-01-19T21:56:30.715Z,83.65
2024-01-19T21:59:37.405Z,84.49
2024-01-19T22:02:47.684Z,81.27
2024-01-19T22:05:56.098Z,81.48
2024-01-19T22:09:02.782Z,78.72
2024-01-19T22:12:10.065Z,81.84
2024-01-19T22:15:16.575Z,83.87
2024-01-19T22:18:24.841Z,80.35
2024-01-19T22:21:31.667Z,79.91
2024-01-19T22:24:38.669Z,80.94
2024-01-19T22:27:45.969Z,80.67
2024-01-19T22:30:52.582Z,78.99
2024-01-19T22:34:01.206Z,77.57
2024-01-19T22:37:08.424Z,77.55
2024-01-19T22:40:15.517Z,79.03
2024-01-19T22:43:22.438Z,84.37
2024-01-19T22:46:30.152Z,91.57
2024-01-19T22:49:39.462Z,88.03
2024-01-19T22:52:46.024Z,80.80
2024-01-19T22:55:54.773Z,79.82
2024-01-19T22:59:04.363Z,79.46
2024-01-19T23:02:11.477Z,79.47
2024-01-19T23:05:19.816Z,79.90
2024-01-19T23:08:26.375Z,77.16
2024-01-19T23:11:33.417Z,78.02
2024-01-19T23:14:40.264Z,75.97
2024-01-19T23:17:47.249Z,83.85
2024-01-19T23:20:55.319Z,82.80
2024-01-19T23:24:01.993Z,83.82
2024-01-19T23:27:09.389Z,80.42
2024-01-19T23:30:16.154Z,79.99
2024-01-19T23:33:23.478Z,83.85
2024-01-19T23:36:31.811Z,87.58
2024-01-19T23:39:39.276Z,85.42
2024-01-19T23:42:46.599Z,88.58
2024-01-19T23:45:53.404Z,86.80
2024-01-19T23:49:00.470Z,88.43
2024-01-19T23:52:08.733Z,84.79
2024-01-19T23:55:16.220Z,83.54
2024-01-19T23:58:22.802Z,84.83
